Charles W. Baker (2M8)
Millington, TN
Field Elevation: 247
Lat: 35°16.74N  Long: 89°55.89W
CTAF/Unicom Freq: 122.8000
   
     For Weather-by-Phone, call 901-873-0903
Weather Advisories
11/1/2014 03:32 Z
Altimeter 30.34" Hg
Wind 350° @ 8 KT
Gusts --
Visibility 1/2 SM
Ceiling CLR
Temperature 6° C (43° F)
Dewpoint -5° C (23° F)
Relative Humidity 48%
Density Altitude --
Condensation Altitude 5,500 feet
Wind Chill 3° C (37° F)
  Wind and Runways
Indicated Runway = 36
History
 
 
More Info
All DigiWx sites map
NOAA Forecast
 
Airport IQ 5010
(M01) General Dewitt Spain Airport
(3M3) Collegedale Muni
 
about DigiWx
 
FAA Disclaimer: The data displayed is for advisory purposes only and is not to be used for flight planning or operations. For official data, please call 901-873-0903 to hear the current automated AWOS voice message.
  METAR 2M8 010332Z AUTO 35008KT 1/2SM CLR 06/M05 A3034